Time;durP1;ratioP1;P1;durP2;ratioP2;P2;SDS_P1;SDS_P2;PMS_P1;PMS_P2;Temp;Humidity;BMP_temperature;BMP_pressure;BME280_temperature;BME280_humidity;BME280_pressure;Samples;Min_cycle;Max_cycle;Signal;HPM_P1;HPM_P2
2023/04/24 00:00:27;;;;;;;;;;;11.00;99.90;;;;;;5176527;27;19906;-37
2023/04/24 00:02:57;;;;;;;;;;;11.00;99.90;;;;;;5175397;27;19913;-35
2023/04/24 00:05:23;;;;;;;;;;;11.10;99.90;;;;;;5176474;27;19975;-37
2023/04/24 00:07:52;;;;;;;;;;;11.10;99.90;;;;;;5175792;27;20296;-38
2023/04/24 00:10:18;;;;;;;;;;;11.10;99.90;;;;;;5176323;27;20283;-36
2023/04/24 00:12:43;;;;;;;;;;;11.10;99.90;;;;;;5176231;27;20409;-36
2023/04/24 00:15:09;;;;;;;;;;;11.10;99.90;;;;;;5174764;27;19906;-37
2023/04/24 00:17:34;;;;;;;;;;;11.10;99.90;;;;;;5175967;27;19952;-35
2023/04/24 00:20:01;;;;;;;;;;;11.10;99.90;;;;;;5175950;27;19906;-36
2023/04/24 00:22:27;;;;;;;;;;;11.10;99.90;;;;;;5174709;27;19914;-36
2023/04/24 00:24:53;;;;;;;;;;;11.10;99.90;;;;;;5175922;27;20441;-37
2023/04/24 00:27:18;;;;;;;;;;;11.10;99.90;;;;;;5175949;27;19907;-38
2023/04/24 00:29:44;;;;;;;;;;;11.10;99.90;;;;;;5174738;27;19968;-36
2023/04/24 00:32:09;;;;;;;;;;;11.10;99.90;;;;;;5175773;27;19914;-36
2023/04/24 00:34:35;;;;;;;;;;;11.10;99.90;;;;;;5175841;27;19906;-36
2023/04/24 00:37:00;;;;;;;;;;;11.10;99.90;;;;;;5174923;27;19914;-36
2023/04/24 00:39:26;;;;;;;;;;;11.10;99.90;;;;;;5175825;27;19994;-36
2023/04/24 00:41:52;;;;;;;;;;;11.00;99.90;;;;;;5175522;27;19932;-36
2023/04/24 00:44:17;;;;;;;;;;;11.10;99.90;;;;;;5174910;27;19984;-35
2023/04/24 00:46:43;;;;;;;;;;;11.00;99.90;;;;;;5175518;27;19910;-36
2023/04/24 00:49:08;;;;;;;;;;;11.00;99.90;;;;;;5175428;27;19915;-35
2023/04/24 00:51:34;;;;;;;;;;;11.00;99.90;;;;;;5174441;27;19913;-35
2023/04/24 00:54:00;;;;;;;;;;;10.90;99.90;;;;;;5175504;27;19918;-37
2023/04/24 00:56:26;;;;;;;;;;;10.90;99.90;;;;;;5175575;27;19914;-36
2023/04/24 00:58:52;;;;;;;;;;;10.90;99.90;;;;;;5174474;27;19907;-36
2023/04/24 01:01:21;;;;;;;;;;;10.90;99.90;;;;;;5175315;27;19911;-35
2023/04/24 01:03:47;;;;;;;;;;;10.80;99.90;;;;;;5175374;27;19911;-36
2023/04/24 01:06:13;;;;;;;;;;;10.80;99.90;;;;;;5174451;27;19958;-36
2023/04/24 01:08:39;;;;;;;;;;;10.80;99.90;;;;;;5175336;27;19922;-36
2023/04/24 01:11:05;;;;;;;;;;;10.80;99.90;;;;;;5175111;27;19907;-35
2023/04/24 01:13:31;;;;;;;;;;;10.80;99.90;;;;;;5174526;27;19907;-35
2023/04/24 01:15:57;;;;;;;;;;;10.80;99.90;;;;;;5175095;27;19974;-36
2023/04/24 01:18:22;;;;;;;;;;;10.80;99.90;;;;;;5174470;27;19967;-36
2023/04/24 01:20:49;;;;;;;;;;;10.70;99.90;;;;;;5175040;27;20009;-36
2023/04/24 01:23:15;;;;;;;;;;;10.70;99.90;;;;;;5175205;27;19911;-35
2023/04/24 01:25:41;;;;;;;;;;;10.70;99.90;;;;;;5174424;27;19910;-35
2023/04/24 01:28:06;;;;;;;;;;;10.70;99.90;;;;;;5179211;27;20009;-36
2023/04/24 01:30:32;;;;;;;;;;;10.70;99.90;;;;;;5178939;27;19949;-36
2023/04/24 01:32:58;;;;;;;;;;;10.70;99.90;;;;;;5178578;27;19957;-36
2023/04/24 01:35:24;;;;;;;;;;;10.70;99.90;;;;;;5179355;27;20405;-36
2023/04/24 01:37:49;;;;;;;;;;;10.70;99.90;;;;;;5179273;27;19990;-35
2023/04/24 01:40:15;;;;;;;;;;;10.70;99.90;;;;;;5178409;27;20365;-36
2023/04/24 01:42:40;;;;;;;;;;;10.70;99.90;;;;;;5179210;27;19906;-36
2023/04/24 01:45:08;;;;;;;;;;;10.70;99.90;;;;;;5179105;27;19922;-36
2023/04/24 01:47:33;;;;;;;;;;;10.60;99.90;;;;;;5178273;27;19911;-36
2023/04/24 01:49:58;;;;;;;;;;;10.60;99.90;;;;;;5179146;27;19919;-36
2023/04/24 01:52:24;;;;;;;;;;;10.50;99.90;;;;;;5178196;27;19934;-35
2023/04/24 01:54:49;;;;;;;;;;;10.50;99.90;;;;;;5178166;27;19914;-37
2023/04/24 01:57:15;;;;;;;;;;;10.40;99.90;;;;;;5178815;27;19907;-35
2023/04/24 01:59:42;;;;;;;;;;;10.40;99.90;;;;;;5178784;27;19918;-36
2023/04/24 02:02:08;;;;;;;;;;;10.30;99.90;;;;;;5177933;27;19907;-36
2023/04/24 02:04:33;;;;;;;;;;;10.30;99.90;;;;;;5178833;27;19913;-36
2023/04/24 02:06:59;;;;;;;;;;;10.20;99.90;;;;;;5178628;27;19911;-35
2023/04/24 02:09:24;;;;;;;;;;;10.20;99.90;;;;;;5177840;27;19914;-34
2023/04/24 02:11:50;;;;;;;;;;;10.10;99.90;;;;;;5178660;27;20350;-36
2023/04/24 02:14:16;;;;;;;;;;;10.10;99.90;;;;;;5178405;27;19914;-37
2023/04/24 02:16:41;;;;;;;;;;;10.10;99.90;;;;;;5177350;27;19918;-35
2023/04/24 02:19:06;;;;;;;;;;;10.10;99.90;;;;;;5178378;27;19913;-37
2023/04/24 02:21:32;;;;;;;;;;;10.10;99.90;;;;;;5177880;27;19907;-36
2023/04/24 02:23:58;;;;;;;;;;;10.10;99.90;;;;;;5178332;27;19974;-36
2023/04/24 02:26:23;;;;;;;;;;;10.00;99.90;;;;;;5178460;27;19914;-34
2023/04/24 02:28:49;;;;;;;;;;;10.00;99.90;;;;;;5177312;27;20346;-37
2023/04/24 02:31:14;;;;;;;;;;;10.00;99.90;;;;;;5176968;27;20367;-35
2023/04/24 02:33:40;;;;;;;;;;;10.00;99.90;;;;;;5177021;27;19914;-35
2023/04/24 02:36:05;;;;;;;;;;;10.00;99.90;;;;;;5176137;27;20361;-36
2023/04/24 02:38:31;;;;;;;;;;;10.00;99.90;;;;;;5176492;27;19914;-37
2023/04/24 02:40:56;;;;;;;;;;;10.00;99.90;;;;;;5176744;27;19911;-35
2023/04/24 02:43:22;;;;;;;;;;;10.00;99.90;;;;;;5176022;27;20360;-36
2023/04/24 02:45:47;;;;;;;;;;;10.00;99.90;;;;;;5176815;27;19907;-35
2023/04/24 02:48:13;;;;;;;;;;;10.00;99.90;;;;;;5176311;27;19923;-37
2023/04/24 02:50:38;;;;;;;;;;;10.00;99.90;;;;;;5175976;27;19911;-36
2023/04/24 02:53:03;;;;;;;;;;;10.00;99.90;;;;;;5176618;27;20280;-36
2023/04/24 02:55:30;;;;;;;;;;;10.00;99.90;;;;;;5176665;27;19913;-36
2023/04/24 02:57:55;;;;;;;;;;;10.00;99.90;;;;;;5175620;27;19907;-36
2023/04/24 03:00:21;;;;;;;;;;;10.00;99.90;;;;;;5176542;27;19914;-36
2023/04/24 03:02:46;;;;;;;;;;;10.00;99.90;;;;;;5176539;27;19918;-37
2023/04/24 03:05:12;;;;;;;;;;;10.00;99.90;;;;;;5175629;27;19907;-37
2023/04/24 03:07:37;;;;;;;;;;;9.90;99.90;;;;;;5176460;27;19914;-36
2023/04/24 03:10:04;;;;;;;;;;;10.00;99.90;;;;;;5176262;27;20013;-36
2023/04/24 03:12:30;;;;;;;;;;;10.00;99.90;;;;;;5173185;27;19958;-36
2023/04/24 03:14:56;;;;;;;;;;;10.00;99.90;;;;;;5163525;27;19949;-35
2023/04/24 03:17:21;;;;;;;;;;;10.00;99.90;;;;;;5164598;27;19915;-36
2023/04/24 03:19:47;;;;;;;;;;;10.00;99.90;;;;;;5175489;27;19910;-36
2023/04/24 03:22:12;;;;;;;;;;;10.00;99.90;;;;;;5171817;27;19907;-36
2023/04/24 03:24:38;;;;;;;;;;;9.90;99.90;;;;;;5155288;27;20055;-36
2023/04/24 03:27:03;;;;;;;;;;;9.90;99.90;;;;;;5174031;27;19911;-36
2023/04/24 03:29:28;;;;;;;;;;;10.00;99.90;;;;;;5111883;27;1758092;-34
2023/04/24 03:31:54;;;;;;;;;;;10.00;99.90;;;;;;5175145;27;20373;-36
2023/04/24 03:34:19;;;;;;;;;;;9.90;99.90;;;;;;5176653;27;19910;-36
2023/04/24 03:36:47;;;;;;;;;;;10.00;99.90;;;;;;5176953;27;19906;-35
2023/04/24 03:39:13;;;;;;;;;;;9.90;99.90;;;;;;5176127;27;19950;-37
2023/04/24 03:41:38;;;;;;;;;;;9.90;99.90;;;;;;5176699;27;20407;-37
2023/04/24 03:44:03;;;;;;;;;;;9.90;99.90;;;;;;5176726;27;19949;-37
2023/04/24 03:46:29;;;;;;;;;;;10.00;99.90;;;;;;5176016;27;20373;-35
2023/04/24 03:48:54;;;;;;;;;;;9.90;99.90;;;;;;5175724;27;19966;-36
2023/04/24 03:51:20;;;;;;;;;;;10.00;99.90;;;;;;5176629;27;19910;-35
2023/04/24 03:53:46;;;;;;;;;;;9.90;99.90;;;;;;5175966;27;20401;-36
2023/04/24 03:56:11;;;;;;;;;;;9.90;99.90;;;;;;5176425;27;19906;-35
2023/04/24 03:58:37;;;;;;;;;;;9.90;99.90;;;;;;5176483;27;19910;-37
2023/04/24 04:01:02;;;;;;;;;;;9.90;99.90;;;;;;5175584;27;20018;-35
2023/04/24 04:03:28;;;;;;;;;;;9.90;99.90;;;;;;5176072;27;19910;-37
2023/04/24 04:05:54;;;;;;;;;;;10.00;99.90;;;;;;5176269;27;20047;-36
2023/04/24 04:08:19;;;;;;;;;;;9.90;99.90;;;;;;5175395;27;20276;-35
2023/04/24 04:10:45;;;;;;;;;;;9.90;99.90;;;;;;5176134;27;19914;-35
2023/04/24 04:13:10;;;;;;;;;;;9.90;99.90;;;;;;5176169;27;19911;-35
2023/04/24 04:15:36;;;;;;;;;;;9.90;99.90;;;;;;5175408;27;19918;-35
2023/04/24 04:18:01;;;;;;;;;;;9.90;99.90;;;;;;5175973;27;19920;-35
2023/04/24 04:20:27;;;;;;;;;;;9.90;99.90;;;;;;5176049;27;19954;-35
2023/04/24 04:22:52;;;;;;;;;;;9.90;99.90;;;;;;5175213;27;19958;-36
2023/04/24 04:25:19;;;;;;;;;;;9.90;99.90;;;;;;5175954;27;20315;-35
2023/04/24 04:27:45;;;;;;;;;;;9.90;99.90;;;;;;5175945;27;20517;-37
2023/04/24 04:30:11;;;;;;;;;;;9.90;99.90;;;;;;5174639;27;19918;-36
2023/04/24 04:32:37;;;;;;;;;;;9.90;99.90;;;;;;5175717;27;19921;-36
2023/04/24 04:35:02;;;;;;;;;;;9.90;99.90;;;;;;5175807;27;19914;-37
2023/04/24 04:37:33;;;;;;;;;;;9.90;99.90;;;;;;5175011;27;20321;-36
2023/04/24 04:39:59;;;;;;;;;;;9.90;99.90;;;;;;5175714;27;19998;-35
2023/04/24 04:42:24;;;;;;;;;;;9.90;99.90;;;;;;5174663;27;19942;-35
2023/04/24 04:44:50;;;;;;;;;;;9.90;99.90;;;;;;5175649;27;19911;-36
2023/04/24 04:47:17;;;;;;;;;;;9.90;99.90;;;;;;5175631;27;19910;-35
2023/04/24 04:49:43;;;;;;;;;;;9.90;99.90;;;;;;5174810;27;19929;-36
2023/04/24 04:52:08;;;;;;;;;;;9.90;99.90;;;;;;5175684;27;19911;-35
2023/04/24 04:54:34;;;;;;;;;;;10.00;99.90;;;;;;5175486;27;19951;-35
2023/04/24 04:57:00;;;;;;;;;;;10.00;99.90;;;;;;5174679;27;19910;-35
2023/04/24 04:59:26;;;;;;;;;;;9.90;99.90;;;;;;5175385;27;20277;-34
2023/04/24 05:01:52;;;;;;;;;;;9.90;99.90;;;;;;5175292;27;19907;-36
2023/04/24 05:04:17;;;;;;;;;;;9.90;99.90;;;;;;5174250;27;19918;-36
2023/04/24 05:06:43;;;;;;;;;;;9.90;99.90;;;;;;5175464;27;19907;-35
2023/04/24 05:09:09;;;;;;;;;;;9.90;99.90;;;;;;5175169;27;19919;-36
2023/04/24 05:11:35;;;;;;;;;;;9.90;99.90;;;;;;5174652;27;19907;-35
2023/04/24 05:14:00;;;;;;;;;;;9.90;99.90;;;;;;5175230;27;20261;-35
2023/04/24 05:16:26;;;;;;;;;;;9.90;99.90;;;;;;5175248;27;20269;-35
2023/04/24 05:18:51;;;;;;;;;;;9.80;99.90;;;;;;5174428;27;19907;-36
2023/04/24 05:21:17;;;;;;;;;;;9.90;99.90;;;;;;5175317;27;19952;-35
2023/04/24 05:23:42;;;;;;;;;;;9.90;99.90;;;;;;5175085;27;19911;-36
2023/04/24 05:26:08;;;;;;;;;;;9.90;99.90;;;;;;5174407;27;19910;-35
2023/04/24 05:28:33;;;;;;;;;;;9.80;99.90;;;;;;5156499;27;20377;-35
2023/04/24 05:30:59;;;;;;;;;;;9.80;99.90;;;;;;5174823;27;19930;-35
2023/04/24 05:33:25;;;;;;;;;;;9.80;99.90;;;;;;5174097;27;20357;-37
2023/04/24 05:35:50;;;;;;;;;;;9.90;99.90;;;;;;5175009;27;20314;-36
2023/04/24 05:38:19;;;;;;;;;;;9.80;99.90;;;;;;5174997;27;19907;-36
2023/04/24 05:40:45;;;;;;;;;;;9.90;99.90;;;;;;5174005;27;20002;-35
2023/04/24 05:43:11;;;;;;;;;;;9.90;99.90;;;;;;5174610;27;19910;-36
2023/04/24 05:45:37;;;;;;;;;;;9.90;99.90;;;;;;5174254;27;19918;-37
2023/04/24 05:48:03;;;;;;;;;;;9.90;99.90;;;;;;5174794;27;19914;-35
2023/04/24 05:50:28;;;;;;;;;;;9.90;99.90;;;;;;5168213;27;19961;-37
2023/04/24 05:52:54;;;;;;;;;;;10.00;99.90;;;;;;5161256;27;19950;-36
2023/04/24 05:55:20;;;;;;;;;;;10.00;99.90;;;;;;5166593;27;19918;-35
2023/04/24 05:57:45;;;;;;;;;;;10.00;99.90;;;;;;5168987;27;19911;-36
2023/04/24 06:00:11;;;;;;;;;;;10.00;99.90;;;;;;5166848;27;19915;-35
2023/04/24 06:02:37;;;;;;;;;;;10.00;99.90;;;;;;5172351;27;19934;-35
2023/04/24 06:05:04;;;;;;;;;;;10.00;99.90;;;;;;5174109;27;20247;-36
2023/04/24 06:07:30;;;;;;;;;;;10.00;99.90;;;;;;5166313;27;19911;-37
2023/04/24 06:09:56;;;;;;;;;;;10.10;99.90;;;;;;5170547;27;19943;-35
2023/04/24 06:12:22;;;;;;;;;;;10.00;99.90;;;;;;5174872;27;20365;-36
2023/04/24 06:14:47;;;;;;;;;;;10.00;99.90;;;;;;5176811;27;19915;-37
2023/04/24 06:17:13;;;;;;;;;;;10.00;99.90;;;;;;5173970;27;19990;-37
2023/04/24 06:19:38;;;;;;;;;;;10.00;99.90;;;;;;5171060;27;20381;-36
2023/04/24 06:22:04;;;;;;;;;;;10.00;99.90;;;;;;5172059;27;20381;-35
2023/04/24 06:24:30;;;;;;;;;;;10.00;99.90;;;;;;5177804;27;19998;-35
2023/04/24 06:26:56;;;;;;;;;;;10.00;99.90;;;;;;5177730;27;20391;-35
2023/04/24 06:29:22;;;;;;;;;;;10.00;99.90;;;;;;5176648;27;19919;-35
2023/04/24 06:31:47;;;;;;;;;;;10.10;99.90;;;;;;5176525;27;19944;-36
2023/04/24 06:34:13;;;;;;;;;;;10.10;99.90;;;;;;5177526;27;20321;-37
2023/04/24 06:36:38;;;;;;;;;;;10.10;99.90;;;;;;5176424;27;19963;-36
2023/04/24 06:39:04;;;;;;;;;;;10.20;99.90;;;;;;5176356;27;20393;-35
2023/04/24 06:41:30;;;;;;;;;;;10.20;99.90;;;;;;5167033;27;20399;-36
2023/04/24 06:43:55;;;;;;;;;;;10.20;99.90;;;;;;5176906;27;19918;-35
2023/04/24 06:46:25;;;;;;;;;;;10.30;99.90;;;;;;5167257;27;20007;-35
2023/04/24 06:48:55;;;;;;;;;;;10.20;99.90;;;;;;5172110;27;20378;-37
2023/04/24 06:51:25;;;;;;;;;;;10.30;99.90;;;;;;5166743;27;20006;-38
2023/04/24 06:53:53;;;;;;;;;;;10.20;99.90;;;;;;5175428;27;20376;-36
2023/04/24 06:56:20;;;;;;;;;;;10.20;99.90;;;;;;5175376;27;19913;-35
2023/04/24 06:58:45;;;;;;;;;;;10.20;99.90;;;;;;5177779;27;19907;-36
2023/04/24 07:01:11;;;;;;;;;;;10.20;99.90;;;;;;5177105;27;19926;-37
2023/04/24 07:03:36;;;;;;;;;;;10.20;99.90;;;;;;5176901;27;19918;-36
2023/04/24 07:06:03;;;;;;;;;;;10.20;99.90;;;;;;5177520;27;19906;-36
2023/04/24 07:08:30;;;;;;;;;;;10.20;99.90;;;;;;5158801;27;20282;-37
2023/04/24 07:10:56;;;;;;;;;;;10.20;99.90;;;;;;5176364;27;19913;-35
2023/04/24 07:13:22;;;;;;;;;;;10.30;99.90;;;;;;5176877;27;19910;-37
2023/04/24 07:15:50;;;;;;;;;;;10.30;99.90;;;;;;5170881;27;19911;-36
2023/04/24 07:18:15;;;;;;;;;;;10.40;99.90;;;;;;5173176;27;20364;-35
2023/04/24 07:20:41;;;;;;;;;;;10.50;99.90;;;;;;5175743;27;19911;-37
2023/04/24 07:23:06;;;;;;;;;;;10.50;99.90;;;;;;5174216;27;19915;-36
2023/04/24 07:25:32;;;;;;;;;;;10.60;99.90;;;;;;5172852;27;20384;-36
2023/04/24 07:27:58;;;;;;;;;;;10.60;99.90;;;;;;5176723;27;19906;-35
2023/04/24 07:30:23;;;;;;;;;;;10.70;99.90;;;;;;5176783;27;19941;-36
2023/04/24 07:32:49;;;;;;;;;;;10.60;99.90;;;;;;5176048;27;20281;-35
2023/04/24 07:35:14;;;;;;;;;;;10.70;99.90;;;;;;5174878;27;19952;-36
2023/04/24 07:37:45;;;;;;;;;;;10.70;99.90;;;;;;5168073;27;19918;-36
2023/04/24 07:40:11;;;;;;;;;;;10.70;99.90;;;;;;5149877;27;19907;-36
2023/04/24 07:42:38;;;;;;;;;;;10.80;99.90;;;;;;5156032;27;19954;-37
2023/04/24 07:45:03;;;;;;;;;;;10.80;99.90;;;;;;5174804;27;19906;-35
2023/04/24 07:47:29;;;;;;;;;;;10.80;99.90;;;;;;5176619;27;20428;-36
2023/04/24 07:49:54;;;;;;;;;;;10.70;99.90;;;;;;5176600;27;20009;-37
2023/04/24 07:52:20;;;;;;;;;;;10.70;99.90;;;;;;5175908;27;19971;-36
2023/04/24 07:54:45;;;;;;;;;;;10.70;99.90;;;;;;5176639;27;19907;-37
2023/04/24 07:57:11;;;;;;;;;;;10.80;99.90;;;;;;5176482;27;20264;-37
2023/04/24 07:59:36;;;;;;;;;;;10.80;99.90;;;;;;5175696;27;20311;-37
2023/04/24 08:02:02;;;;;;;;;;;10.90;99.90;;;;;;5176320;27;19907;-37
2023/04/24 08:04:27;;;;;;;;;;;10.90;99.90;;;;;;5176424;27;19907;-36
2023/04/24 08:06:53;;;;;;;;;;;10.90;99.90;;;;;;5174598;27;19925;-35
2023/04/24 08:09:19;;;;;;;;;;;10.90;99.90;;;;;;5175626;27;19919;-35
2023/04/24 08:11:45;;;;;;;;;;;10.90;99.90;;;;;;5175616;27;19994;-36
2023/04/24 08:14:12;;;;;;;;;;;10.90;99.90;;;;;;5174774;27;19907;-36
2023/04/24 08:16:37;;;;;;;;;;;10.90;99.90;;;;;;5176089;27;19911;-36
2023/04/24 08:19:03;;;;;;;;;;;10.80;99.90;;;;;;5175749;27;19956;-37
2023/04/24 08:21:28;;;;;;;;;;;10.70;99.90;;;;;;5175042;27;19997;-38
2023/04/24 08:23:54;;;;;;;;;;;10.50;99.90;;;;;;5175999;27;20017;-37
2023/04/24 08:26:19;;;;;;;;;;;10.50;99.90;;;;;;5175627;27;19917;-36
2023/04/24 08:28:45;;;;;;;;;;;10.40;99.90;;;;;;5175015;27;20029;-35
2023/04/24 08:31:11;;;;;;;;;;;10.40;99.90;;;;;;5175465;27;19989;-36
2023/04/24 08:33:36;;;;;;;;;;;10.30;99.90;;;;;;5175433;27;20516;-37
2023/04/24 08:36:02;;;;;;;;;;;10.40;99.90;;;;;;5174643;27;19959;-37
2023/04/24 08:38:28;;;;;;;;;;;10.30;99.90;;;;;;5175235;27;19915;-36
2023/04/24 08:40:54;;;;;;;;;;;10.30;99.90;;;;;;5176298;27;20291;-37
2023/04/24 08:43:21;;;;;;;;;;;10.40;99.90;;;;;;5175833;27;19907;-37
2023/04/24 08:45:47;;;;;;;;;;;10.40;99.90;;;;;;5176289;27;19913;-36
2023/04/24 08:48:13;;;;;;;;;;;10.30;99.90;;;;;;5175642;27;20021;-37
2023/04/24 08:50:41;;;;;;;;;;;10.30;99.90;;;;;;5175131;27;19918;-37
2023/04/24 08:53:07;;;;;;;;;;;10.20;99.90;;;;;;5175402;27;19911;-37
2023/04/24 08:55:33;;;;;;;;;;;10.20;99.90;;;;;;5174902;27;19963;-36
2023/04/24 08:58:00;;;;;;;;;;;10.20;99.90;;;;;;5175485;27;19946;-37
2023/04/24 09:00:26;;;;;;;;;;;10.20;99.90;;;;;;5175233;27;19911;-36
2023/04/24 09:02:53;;;;;;;;;;;10.20;99.90;;;;;;5174691;27;19907;-37
2023/04/24 09:05:20;;;;;;;;;;;10.20;99.90;;;;;;5174563;27;19917;-36
2023/04/24 09:07:49;;;;;;;;;;;10.10;99.90;;;;;;5174545;27;20357;-38
2023/04/24 09:10:15;;;;;;;;;;;10.00;99.90;;;;;;5171838;27;19931;-37
2023/04/24 09:12:41;;;;;;;;;;;9.90;99.90;;;;;;5171691;27;20424;-37
2023/04/24 09:15:07;;;;;;;;;;;9.90;99.90;;;;;;5174834;27;19915;-36
2023/04/24 09:17:33;;;;;;;;;;;9.80;99.90;;;;;;5171936;27;20052;-36
2023/04/24 09:19:58;;;;;;;;;;;9.80;99.90;;;;;;5168609;27;20387;-36
2023/04/24 09:22:24;;;;;;;;;;;9.80;99.90;;;;;;5169515;27;19912;-37
2023/04/24 09:24:59;;;;;;;;;;;9.80;99.90;;;;;;5167933;27;19918;-36
2023/04/24 09:27:24;;;;;;;;;;;9.60;99.90;;;;;;5175670;27;20418;-36
2023/04/24 09:29:54;;;;;;;;;;;9.60;99.90;;;;;;5175343;27;19972;-36
2023/04/24 09:32:21;;;;;;;;;;;9.50;99.90;;;;;;5175064;27;19911;-38
2023/04/24 09:34:47;;;;;;;;;;;9.50;99.90;;;;;;5175844;27;19933;-36
2023/04/24 09:37:26;;;;;;;;;;;9.50;99.90;;;;;;5175609;27;19907;-36
2023/04/24 09:40:07;;;;;;;;;;;9.50;99.90;;;;;;5175101;27;19906;-36
2023/04/24 09:42:33;;;;;;;;;;;9.50;99.90;;;;;;5175299;27;20002;-37
2023/04/24 09:44:58;;;;;;;;;;;9.50;99.90;;;;;;5174704;27;19972;-35
2023/04/24 09:47:24;;;;;;;;;;;9.50;99.90;;;;;;5169787;27;19945;-35
2023/04/24 09:49:49;;;;;;;;;;;9.50;99.90;;;;;;5175660;27;19925;-37
2023/04/24 09:52:15;;;;;;;;;;;9.50;99.90;;;;;;5178852;27;19997;-36
2023/04/24 09:54:40;;;;;;;;;;;9.50;99.90;;;;;;5178743;27;20387;-36
2023/04/24 09:57:09;;;;;;;;;;;9.50;99.90;;;;;;5178076;27;19910;-38
2023/04/24 09:59:34;;;;;;;;;;;9.50;99.90;;;;;;5170433;27;19918;-37
2023/04/24 10:02:00;;;;;;;;;;;9.50;99.90;;;;;;5174215;27;19918;-36
2023/04/24 10:04:26;;;;;;;;;;;9.50;99.90;;;;;;5163022;27;20334;-36
2023/04/24 10:06:57;;;;;;;;;;;9.40;99.90;;;;;;5157663;27;19933;-39
2023/04/24 10:09:23;;;;;;;;;;;9.40;99.90;;;;;;5158701;27;19964;-36
2023/04/24 10:11:50;;;;;;;;;;;9.40;99.90;;;;;;5160700;27;19915;-37
2023/04/24 10:14:17;;;;;;;;;;;9.40;99.90;;;;;;5164485;27;19918;-37
2023/04/24 10:16:43;;;;;;;;;;;9.40;99.90;;;;;;5165938;27;19911;-36
2023/04/24 10:19:09;;;;;;;;;;;9.40;99.90;;;;;;5178909;27;20272;-36
2023/04/24 10:21:34;;;;;;;;;;;9.40;99.90;;;;;;5162415;27;19932;-37
2023/04/24 10:24:03;;;;;;;;;;;9.50;99.90;;;;;;5164154;27;19914;-36
2023/04/24 10:26:29;;;;;;;;;;;9.50;99.90;;;;;;5161270;27;19925;-37
2023/04/24 10:28:57;;;;;;;;;;;9.40;99.90;;;;;;5158046;27;19919;-38
2023/04/24 10:31:22;;;;;;;;;;;9.50;99.90;;;;;;5165793;27;19919;-36
2023/04/24 10:33:49;;;;;;;;;;;9.50;99.90;;;;;;5162727;27;20005;-35
2023/04/24 10:36:16;;;;;;;;;;;9.50;99.90;;;;;;5171847;27;19918;-37
2023/04/24 10:38:43;;;;;;;;;;;9.50;99.90;;;;;;5163079;27;19918;-37
2023/04/24 10:41:10;;;;;;;;;;;9.60;99.90;;;;;;5167098;27;19915;-36
2023/04/24 10:43:35;;;;;;;;;;;9.60;99.90;;;;;;5162536;27;19911;-37
2023/04/24 10:46:02;;;;;;;;;;;9.70;99.90;;;;;;5161339;27;20380;-36
2023/04/24 10:48:28;;;;;;;;;;;9.70;99.90;;;;;;5168397;27;20075;-37
2023/04/24 10:50:53;;;;;;;;;;;9.70;99.90;;;;;;5175817;27;20413;-36
2023/04/24 10:53:23;;;;;;;;;;;9.70;99.90;;;;;;5178348;27;20047;-35
2023/04/24 10:55:56;;;;;;;;;;;9.60;99.90;;;;;;5173571;27;19918;-36
2023/04/24 10:58:22;;;;;;;;;;;9.60;99.90;;;;;;5159224;27;19980;-35
2023/04/24 11:00:57;;;;;;;;;;;9.60;99.90;;;;;;5163213;27;20027;-37
2023/04/24 11:03:23;;;;;;;;;;;9.50;99.90;;;;;;5161551;27;20256;-36
2023/04/24 11:05:50;;;;;;;;;;;9.50;99.90;;;;;;5157434;27;19908;-36
2023/04/24 11:08:21;;;;;;;;;;;9.50;99.90;;;;;;5157678;27;20002;-36
2023/04/24 11:10:47;;;;;;;;;;;9.50;99.90;;;;;;5172355;27;20281;-36
2023/04/24 11:13:16;;;;;;;;;;;9.50;99.90;;;;;;5166499;27;19911;-36
2023/04/24 11:15:42;;;;;;;;;;;9.50;99.90;;;;;;5174678;27;20001;-36
2023/04/24 11:18:12;;;;;;;;;;;9.50;99.90;;;;;;5167523;27;20048;-35
2023/04/24 11:20:41;;;;;;;;;;;9.60;99.90;;;;;;5156294;27;19968;-37
2023/04/24 11:23:08;;;;;;;;;;;9.60;99.90;;;;;;5161693;27;20001;-36
2023/04/24 11:25:35;;;;;;;;;;;9.80;99.90;;;;;;5175311;27;20405;-36
2023/04/24 11:28:03;;;;;;;;;;;10.00;99.90;;;;;;5176281;27;19965;-37
2023/04/24 11:30:29;;;;;;;;;;;10.20;99.90;;;;;;5174422;27;20501;-38
2023/04/24 11:32:56;;;;;;;;;;;10.30;99.90;;;;;;5158274;27;19911;-35
2023/04/24 11:35:27;;;;;;;;;;;10.30;99.90;;;;;;5155931;27;19907;-37
2023/04/24 11:37:53;;;;;;;;;;;10.20;99.90;;;;;;5172208;27;20001;-36
2023/04/24 11:40:20;;;;;;;;;;;10.20;99.90;;;;;;5176284;27;20039;-36
2023/04/24 11:42:49;;;;;;;;;;;10.10;99.90;;;;;;5175803;27;19917;-36
2023/04/24 11:45:16;;;;;;;;;;;10.10;99.90;;;;;;5176096;27;19907;-36
2023/04/24 11:47:42;;;;;;;;;;;10.00;99.90;;;;;;5176654;27;19935;-36
2023/04/24 11:50:09;;;;;;;;;;;10.00;99.90;;;;;;5176254;27;19915;-37
2023/04/24 11:52:41;;;;;;;;;;;10.00;99.90;;;;;;5175692;27;19907;-36
2023/04/24 11:55:19;;;;;;;;;;;10.00;99.90;;;;;;5176308;27;20462;-36
2023/04/24 11:57:44;;;;;;;;;;;10.00;99.90;;;;;;5176016;27;19962;-36
2023/04/24 12:00:20;;;;;;;;;;;10.00;99.90;;;;;;5175582;27;19949;-37
2023/04/24 12:02:46;;;;;;;;;;;10.10;99.90;;;;;;5175551;27;19911;-36
2023/04/24 12:05:25;;;;;;;;;;;10.10;99.90;;;;;;5175663;27;19911;-35
2023/04/24 12:07:51;;;;;;;;;;;10.10;99.90;;;;;;5174715;27;20009;-37
2023/04/24 12:10:24;;;;;;;;;;;10.10;99.90;;;;;;5174965;27;19961;-37
2023/04/24 12:12:50;;;;;;;;;;;10.10;99.90;;;;;;5175398;27;19911;-37
2023/04/24 12:15:16;;;;;;;;;;;10.00;99.90;;;;;;5175794;27;19918;-37
2023/04/24 12:17:41;;;;;;;;;;;9.90;99.90;;;;;;5175729;27;19953;-37
2023/04/24 12:20:08;;;;;;;;;;;9.90;99.90;;;;;;5175029;27;19910;-38
2023/04/24 12:23:06;;;;;;;;;;;9.80;99.90;;;;;;5175298;27;19911;-38
2023/04/24 12:25:32;;;;;;;;;;;9.70;99.90;;;;;;5117428;27;19907;-36
2023/04/24 12:27:58;;;;;;;;;;;9.70;99.90;;;;;;5175977;27;19911;-37
2023/04/24 12:30:27;;;;;;;;;;;9.70;99.90;;;;;;5176175;27;19919;-35
2023/04/24 12:32:54;;;;;;;;;;;9.80;99.90;;;;;;5176444;27;19911;-36
2023/04/24 12:35:21;;;;;;;;;;;9.80;99.90;;;;;;5174615;27;19993;-36
2023/04/24 12:37:46;;;;;;;;;;;9.90;99.90;;;;;;5176218;27;19938;-35
2023/04/24 12:40:12;;;;;;;;;;;10.00;99.90;;;;;;5176478;27;20370;-37
2023/04/24 12:42:45;;;;;;;;;;;10.00;99.90;;;;;;5175177;27;19914;-37
2023/04/24 12:45:12;;;;;;;;;;;10.00;99.90;;;;;;5175331;27;19918;-37
2023/04/24 12:47:38;;;;;;;;;;;10.10;99.90;;;;;;5175583;27;19906;-37
2023/04/24 12:50:04;;;;;;;;;;;10.20;99.90;;;;;;5176073;27;19918;-37
2023/04/24 12:52:29;;;;;;;;;;;10.20;99.90;;;;;;5176117;27;19913;-36
2023/04/24 12:54:56;;;;;;;;;;;10.20;99.90;;;;;;5169562;27;19911;-38
2023/04/24 12:57:22;;;;;;;;;;;10.20;99.90;;;;;;5160598;27;19929;-37
2023/04/24 12:59:48;;;;;;;;;;;10.10;99.90;;;;;;5172243;27;20043;-37
2023/04/24 13:02:17;;;;;;;;;;;10.00;99.90;;;;;;5172585;27;19993;-36
2023/04/24 13:04:49;;;;;;;;;;;10.00;99.90;;;;;;5170851;27;19974;-37
2023/04/24 13:07:16;;;;;;;;;;;9.90;99.90;;;;;;5170462;27;19915;-37
2023/04/24 13:09:42;;;;;;;;;;;9.90;99.90;;;;;;5173584;27;19914;-37
2023/04/24 13:12:07;;;;;;;;;;;9.90;99.90;;;;;;5174249;27;19914;-36
2023/04/24 13:14:33;;;;;;;;;;;9.90;99.90;;;;;;5174280;27;19915;-37
2023/04/24 13:16:59;;;;;;;;;;;10.00;99.90;;;;;;5173215;27;19910;-39
2023/04/24 13:19:26;;;;;;;;;;;9.90;99.90;;;;;;5171853;27;20435;-38
2023/04/24 13:21:54;;;;;;;;;;;10.00;99.90;;;;;;5175840;27;19907;-36
2023/04/24 13:24:19;;;;;;;;;;;9.90;99.90;;;;;;5172157;27;20441;-38
2023/04/24 13:26:45;;;;;;;;;;;9.90;99.90;;;;;;5176531;27;19913;-38
2023/04/24 13:29:11;;;;;;;;;;;9.90;99.90;;;;;;5177798;27;19923;-37
2023/04/24 13:31:36;;;;;;;;;;;9.90;99.90;;;;;;5171277;27;19926;-37
2023/04/24 13:34:02;;;;;;;;;;;9.90;99.90;;;;;;5176217;27;20348;-37
2023/04/24 13:36:28;;;;;;;;;;;9.90;99.90;;;;;;5177199;27;19926;-37
2023/04/24 13:38:53;;;;;;;;;;;10.00;99.90;;;;;;5174958;27;19918;-36
2023/04/24 13:41:19;;;;;;;;;;;10.00;99.90;;;;;;5177747;27;20005;-36
2023/04/24 13:43:44;;;;;;;;;;;10.10;99.90;;;;;;5175485;27;19918;-38
2023/04/24 13:46:10;;;;;;;;;;;10.00;99.90;;;;;;5178797;27;19932;-38
2023/04/24 13:48:36;;;;;;;;;;;10.00;99.90;;;;;;5178074;27;19914;-36
2023/04/24 13:51:01;;;;;;;;;;;10.00;99.90;;;;;;5177142;27;19940;-37
2023/04/24 13:53:26;;;;;;;;;;;9.90;99.90;;;;;;5177085;27;19911;-36
2023/04/24 13:55:52;;;;;;;;;;;9.80;99.90;;;;;;5158657;27;19954;-37
2023/04/24 13:58:17;;;;;;;;;;;9.70;99.90;;;;;;5176868;27;19914;-36
2023/04/24 14:00:43;;;;;;;;;;;9.60;99.90;;;;;;5177955;27;20369;-36
2023/04/24 14:03:08;;;;;;;;;;;9.60;99.90;;;;;;5177347;27;19953;-36
2023/04/24 14:05:34;;;;;;;;;;;9.50;99.90;;;;;;5176855;27;20571;-36
2023/04/24 14:07:59;;;;;;;;;;;9.50;99.90;;;;;;5177484;27;20018;-36
2023/04/24 14:10:26;;;;;;;;;;;9.50;99.90;;;;;;5177997;27;19959;-36
2023/04/24 14:12:52;;;;;;;;;;;9.60;99.90;;;;;;5176359;27;20347;-36
2023/04/24 14:15:18;;;;;;;;;;;9.70;99.90;;;;;;5177781;27;19957;-36